sensor_id;sensor_type;location;lat;lon;timestamp;P1;durP1;ratioP1;P2;durP2;ratioP2
19595;SDS011;9945;46.010;8.946;2022-10-04T00:01:44;6.05;;;1.30;;
19595;SDS011;9945;46.010;8.946;2022-10-04T00:04:15;3.67;;;1.20;;
19595;SDS011;9945;46.010;8.946;2022-10-04T00:06:48;1.70;;;1.15;;
19595;SDS011;9945;46.010;8.946;2022-10-04T00:09:19;1.20;;;1.20;;
19595;SDS011;9945;46.010;8.946;2022-10-04T00:11:50;1.77;;;1.50;;
19595;SDS011;9945;46.010;8.946;2022-10-04T00:14:21;2.05;;;1.42;;
19595;SDS011;9945;46.010;8.946;2022-10-04T00:16:53;2.83;;;1.98;;
19595;SDS011;9945;46.010;8.946;2022-10-04T00:19:25;5.28;;;1.52;;
19595;SDS011;9945;46.010;8.946;2022-10-04T00:31:11;2.22;;;1.60;;
19595;SDS011;9945;46.010;8.946;2022-10-04T00:33:45;1.30;;;1.20;;
19595;SDS011;9945;46.010;8.946;2022-10-04T00:39:22;1.13;;;1.05;;
19595;SDS011;9945;46.010;8.946;2022-10-04T00:42:01;1.20;;;1.10;;
19595;SDS011;9945;46.010;8.946;2022-10-04T00:44:40;2.15;;;1.33;;
19595;SDS011;9945;46.010;8.946;2022-10-04T00:47:13;3.65;;;1.20;;
19595;SDS011;9945;46.010;8.946;2022-10-04T00:49:48;1.17;;;0.95;;
19595;SDS011;9945;46.010;8.946;2022-10-04T00:52:22;1.30;;;1.10;;
19595;SDS011;9945;46.010;8.946;2022-10-04T00:54:53;1.70;;;1.00;;
19595;SDS011;9945;46.010;8.946;2022-10-04T00:57:23;3.13;;;1.23;;
19595;SDS011;9945;46.010;8.946;2022-10-04T00:59:53;2.28;;;1.10;;
19595;SDS011;9945;46.010;8.946;2022-10-04T01:02:26;2.95;;;1.20;;
19595;SDS011;9945;46.010;8.946;2022-10-04T01:04:59;2.05;;;1.52;;
19595;SDS011;9945;46.010;8.946;2022-10-04T01:07:31;1.00;;;1.00;;
19595;SDS011;9945;46.010;8.946;2022-10-04T01:10:04;1.27;;;1.17;;
19595;SDS011;9945;46.010;8.946;2022-10-04T01:12:42;3.45;;;1.10;;
19595;SDS011;9945;46.010;8.946;2022-10-04T01:15:15;2.05;;;1.20;;
19595;SDS011;9945;46.010;8.946;2022-10-04T01:18:07;3.53;;;1.20;;
19595;SDS011;9945;46.010;8.946;2022-10-04T01:20:36;1.23;;;1.10;;
19595;SDS011;9945;46.010;8.946;2022-10-04T01:23:07;0.95;;;0.90;;
19595;SDS011;9945;46.010;8.946;2022-10-04T01:25:42;5.13;;;1.35;;
19595;SDS011;9945;46.010;8.946;2022-10-04T01:28:10;1.08;;;1.08;;
19595;SDS011;9945;46.010;8.946;2022-10-04T01:30:37;2.25;;;0.95;;
19595;SDS011;9945;46.010;8.946;2022-10-04T01:33:04;2.78;;;0.90;;
19595;SDS011;9945;46.010;8.946;2022-10-04T01:35:32;2.78;;;1.08;;
19595;SDS011;9945;46.010;8.946;2022-10-04T01:38:00;5.15;;;1.33;;
19595;SDS011;9945;46.010;8.946;2022-10-04T01:40:32;3.50;;;1.20;;
19595;SDS011;9945;46.010;8.946;2022-10-04T01:43:03;1.27;;;1.17;;
19595;SDS011;9945;46.010;8.946;2022-10-04T01:45:34;0.93;;;0.93;;
19595;SDS011;9945;46.010;8.946;2022-10-04T01:48:07;4.35;;;0.80;;
19595;SDS011;9945;46.010;8.946;2022-10-04T01:50:40;2.65;;;1.20;;
19595;SDS011;9945;46.010;8.946;2022-10-04T01:53:13;0.98;;;0.93;;
19595;SDS011;9945;46.010;8.946;2022-10-04T01:55:46;0.70;;;0.70;;
19595;SDS011;9945;46.010;8.946;2022-10-04T01:58:17;0.80;;;0.80;;
19595;SDS011;9945;46.010;8.946;2022-10-04T02:00:48;2.28;;;0.95;;
19595;SDS011;9945;46.010;8.946;2022-10-04T02:03:20;1.58;;;0.75;;
19595;SDS011;9945;46.010;8.946;2022-10-04T02:05:53;0.88;;;0.75;;
19595;SDS011;9945;46.010;8.946;2022-10-04T02:08:25;1.38;;;1.05;;
19595;SDS011;9945;46.010;8.946;2022-10-04T02:10:56;1.05;;;1.05;;
19595;SDS011;9945;46.010;8.946;2022-10-04T02:13:26;3.80;;;1.00;;
19595;SDS011;9945;46.010;8.946;2022-10-04T02:15:59;1.40;;;1.30;;
19595;SDS011;9945;46.010;8.946;2022-10-04T02:18:27;3.63;;;1.15;;
19595;SDS011;9945;46.010;8.946;2022-10-04T02:20:58;1.08;;;1.02;;
19595;SDS011;9945;46.010;8.946;2022-10-04T02:23:26;5.55;;;1.10;;
19595;SDS011;9945;46.010;8.946;2022-10-04T02:25:53;6.10;;;1.20;;
19595;SDS011;9945;46.010;8.946;2022-10-04T02:28:22;3.15;;;1.45;;
19595;SDS011;9945;46.010;8.946;2022-10-04T02:30:49;3.20;;;1.38;;
19595;SDS011;9945;46.010;8.946;2022-10-04T02:33:37;1.42;;;1.08;;
19595;SDS011;9945;46.010;8.946;2022-10-04T02:36:06;4.28;;;1.20;;
19595;SDS011;9945;46.010;8.946;2022-10-04T02:38:36;3.75;;;1.10;;
19595;SDS011;9945;46.010;8.946;2022-10-04T02:41:08;1.00;;;0.90;;
19595;SDS011;9945;46.010;8.946;2022-10-04T02:43:44;1.50;;;1.38;;
19595;SDS011;9945;46.010;8.946;2022-10-04T02:46:16;1.23;;;1.17;;
19595;SDS011;9945;46.010;8.946;2022-10-04T02:48:47;1.90;;;0.90;;
19595;SDS011;9945;46.010;8.946;2022-10-04T02:51:18;1.33;;;0.98;;
19595;SDS011;9945;46.010;8.946;2022-10-04T02:53:51;1.13;;;1.08;;
19595;SDS011;9945;46.010;8.946;2022-10-04T02:56:25;0.90;;;0.90;;
19595;SDS011;9945;46.010;8.946;2022-10-04T02:58:54;2.15;;;1.05;;
19595;SDS011;9945;46.010;8.946;2022-10-04T03:01:34;1.13;;;0.90;;
19595;SDS011;9945;46.010;8.946;2022-10-04T03:04:09;0.98;;;0.93;;
19595;SDS011;9945;46.010;8.946;2022-10-04T03:06:39;0.80;;;0.80;;
19595;SDS011;9945;46.010;8.946;2022-10-04T03:09:09;2.90;;;0.73;;
19595;SDS011;9945;46.010;8.946;2022-10-04T03:11:37;1.07;;;0.97;;
19595;SDS011;9945;46.010;8.946;2022-10-04T03:14:08;0.80;;;0.80;;
19595;SDS011;9945;46.010;8.946;2022-10-04T03:16:39;2.22;;;0.90;;
19595;SDS011;9945;46.010;8.946;2022-10-04T03:19:08;2.17;;;1.20;;
19595;SDS011;9945;46.010;8.946;2022-10-04T03:21:38;1.73;;;1.23;;
19595;SDS011;9945;46.010;8.946;2022-10-04T03:24:07;1.27;;;1.17;;
19595;SDS011;9945;46.010;8.946;2022-10-04T03:26:41;1.30;;;1.20;;
19595;SDS011;9945;46.010;8.946;2022-10-04T03:29:13;3.27;;;1.43;;
19595;SDS011;9945;46.010;8.946;2022-10-04T03:31:42;1.73;;;1.20;;
19595;SDS011;9945;46.010;8.946;2022-10-04T03:34:12;2.53;;;1.38;;
19595;SDS011;9945;46.010;8.946;2022-10-04T03:36:40;1.33;;;1.20;;
19595;SDS011;9945;46.010;8.946;2022-10-04T03:39:09;2.37;;;1.20;;
19595;SDS011;9945;46.010;8.946;2022-10-04T03:41:38;1.83;;;1.00;;
19595;SDS011;9945;46.010;8.946;2022-10-04T03:44:06;3.50;;;1.10;;
19595;SDS011;9945;46.010;8.946;2022-10-04T03:46:41;2.58;;;0.93;;
19595;SDS011;9945;46.010;8.946;2022-10-04T03:49:10;1.00;;;1.00;;
19595;SDS011;9945;46.010;8.946;2022-10-04T03:51:43;4.28;;;1.00;;
19595;SDS011;9945;46.010;8.946;2022-10-04T03:54:15;2.37;;;1.00;;
19595;SDS011;9945;46.010;8.946;2022-10-04T03:56:47;2.05;;;1.00;;
19595;SDS011;9945;46.010;8.946;2022-10-04T03:59:17;2.50;;;1.30;;
19595;SDS011;9945;46.010;8.946;2022-10-04T04:01:45;2.78;;;1.30;;
19595;SDS011;9945;46.010;8.946;2022-10-04T04:04:17;3.43;;;1.60;;
19595;SDS011;9945;46.010;8.946;2022-10-04T04:06:50;2.72;;;1.20;;
19595;SDS011;9945;46.010;8.946;2022-10-04T04:09:22;3.40;;;1.10;;
19595;SDS011;9945;46.010;8.946;2022-10-04T04:11:53;0.97;;;0.97;;
19595;SDS011;9945;46.010;8.946;2022-10-04T04:14:25;5.35;;;1.40;;
19595;SDS011;9945;46.010;8.946;2022-10-04T04:16:54;1.38;;;1.00;;
19595;SDS011;9945;46.010;8.946;2022-10-04T04:19:44;2.83;;;1.20;;
19595;SDS011;9945;46.010;8.946;2022-10-04T04:22:13;2.77;;;0.90;;
19595;SDS011;9945;46.010;8.946;2022-10-04T04:24:42;1.42;;;1.08;;
19595;SDS011;9945;46.010;8.946;2022-10-04T04:27:10;2.93;;;1.20;;
19595;SDS011;9945;46.010;8.946;2022-10-04T04:29:43;1.30;;;1.20;;
19595;SDS011;9945;46.010;8.946;2022-10-04T04:32:14;1.02;;;1.02;;
19595;SDS011;9945;46.010;8.946;2022-10-04T04:34:49;2.20;;;1.15;;
19595;SDS011;9945;46.010;8.946;2022-10-04T04:37:17;3.90;;;1.40;;
19595;SDS011;9945;46.010;8.946;2022-10-04T04:39:47;4.30;;;1.07;;
19595;SDS011;9945;46.010;8.946;2022-10-04T04:42:19;1.83;;;1.07;;
19595;SDS011;9945;46.010;8.946;2022-10-04T04:44:53;1.17;;;0.93;;
19595;SDS011;9945;46.010;8.946;2022-10-04T04:47:26;2.22;;;1.23;;
19595;SDS011;9945;46.010;8.946;2022-10-04T04:50:02;1.20;;;1.10;;
19595;SDS011;9945;46.010;8.946;2022-10-04T04:52:32;3.90;;;1.35;;
19595;SDS011;9945;46.010;8.946;2022-10-04T04:55:01;1.45;;;1.35;;
19595;SDS011;9945;46.010;8.946;2022-10-04T04:57:30;3.03;;;1.17;;
19595;SDS011;9945;46.010;8.946;2022-10-04T04:59:59;2.22;;;1.30;;
19595;SDS011;9945;46.010;8.946;2022-10-04T05:02:28;5.80;;;1.35;;
19595;SDS011;9945;46.010;8.946;2022-10-04T05:05:13;1.73;;;1.10;;
19595;SDS011;9945;46.010;8.946;2022-10-04T05:07:44;1.92;;;1.55;;
19595;SDS011;9945;46.010;8.946;2022-10-04T05:10:24;1.63;;;1.30;;
19595;SDS011;9945;46.010;8.946;2022-10-04T05:12:56;2.77;;;1.30;;
19595;SDS011;9945;46.010;8.946;2022-10-04T05:15:26;1.33;;;1.23;;
19595;SDS011;9945;46.010;8.946;2022-10-04T05:17:59;2.17;;;1.60;;
19595;SDS011;9945;46.010;8.946;2022-10-04T05:20:26;8.05;;;1.58;;
19595;SDS011;9945;46.010;8.946;2022-10-04T05:22:55;3.23;;;1.60;;
19595;SDS011;9945;46.010;8.946;2022-10-04T05:25:25;2.03;;;1.38;;
19595;SDS011;9945;46.010;8.946;2022-10-04T05:27:54;7.40;;;1.90;;
19595;SDS011;9945;46.010;8.946;2022-10-04T05:30:32;3.78;;;1.45;;
19595;SDS011;9945;46.010;8.946;2022-10-04T05:33:10;5.03;;;1.40;;
19595;SDS011;9945;46.010;8.946;2022-10-04T05:35:41;2.60;;;1.17;;
19595;SDS011;9945;46.010;8.946;2022-10-04T05:38:21;3.35;;;1.52;;
19595;SDS011;9945;46.010;8.946;2022-10-04T05:40:59;8.18;;;1.55;;
19595;SDS011;9945;46.010;8.946;2022-10-04T05:43:34;5.70;;;1.58;;
19595;SDS011;9945;46.010;8.946;2022-10-04T05:46:12;8.98;;;1.42;;
19595;SDS011;9945;46.010;8.946;2022-10-04T05:48:42;3.08;;;1.55;;
19595;SDS011;9945;46.010;8.946;2022-10-04T05:51:11;1.75;;;1.65;;
19595;SDS011;9945;46.010;8.946;2022-10-04T05:53:44;2.20;;;1.60;;
19595;SDS011;9945;46.010;8.946;2022-10-04T05:56:15;4.88;;;1.63;;
19595;SDS011;9945;46.010;8.946;2022-10-04T05:58:58;6.05;;;2.03;;
19595;SDS011;9945;46.010;8.946;2022-10-04T06:01:38;5.22;;;2.20;;
19595;SDS011;9945;46.010;8.946;2022-10-04T06:04:15;7.88;;;2.10;;
19595;SDS011;9945;46.010;8.946;2022-10-04T06:07:10;12.00;;;1.92;;
19595;SDS011;9945;46.010;8.946;2022-10-04T06:09:48;5.25;;;2.30;;
19595;SDS011;9945;46.010;8.946;2022-10-04T06:12:25;4.38;;;2.28;;
19595;SDS011;9945;46.010;8.946;2022-10-04T06:15:23;6.63;;;2.10;;
19595;SDS011;9945;46.010;8.946;2022-10-04T06:18:15;5.07;;;1.88;;
19595;SDS011;9945;46.010;8.946;2022-10-04T06:21:02;6.45;;;2.10;;
19595;SDS011;9945;46.010;8.946;2022-10-04T06:23:41;1.90;;;1.80;;
19595;SDS011;9945;46.010;8.946;2022-10-04T06:26:13;4.43;;;1.85;;
19595;SDS011;9945;46.010;8.946;2022-10-04T06:28:46;3.30;;;2.30;;
19595;SDS011;9945;46.010;8.946;2022-10-04T06:34:21;4.85;;;2.50;;
19595;SDS011;9945;46.010;8.946;2022-10-04T06:37:26;4.20;;;2.58;;
19595;SDS011;9945;46.010;8.946;2022-10-04T06:43:19;8.40;;;3.00;;
19595;SDS011;9945;46.010;8.946;2022-10-04T06:46:01;4.43;;;3.05;;
19595;SDS011;9945;46.010;8.946;2022-10-04T06:48:38;10.20;;;3.22;;
19595;SDS011;9945;46.010;8.946;2022-10-04T06:51:19;8.18;;;3.10;;
19595;SDS011;9945;46.010;8.946;2022-10-04T06:54:01;6.15;;;2.95;;
19595;SDS011;9945;46.010;8.946;2022-10-04T06:56:47;7.72;;;2.92;;
19595;SDS011;9945;46.010;8.946;2022-10-04T06:59:31;12.48;;;3.22;;
19595;SDS011;9945;46.010;8.946;2022-10-04T07:02:12;4.60;;;3.20;;
19595;SDS011;9945;46.010;8.946;2022-10-04T07:04:45;3.78;;;2.60;;
19595;SDS011;9945;46.010;8.946;2022-10-04T07:07:24;4.38;;;2.38;;
19595;SDS011;9945;46.010;8.946;2022-10-04T07:10:02;7.85;;;2.58;;
19595;SDS011;9945;46.010;8.946;2022-10-04T07:12:47;6.18;;;2.65;;
19595;SDS011;9945;46.010;8.946;2022-10-04T07:15:22;4.05;;;2.30;;
19595;SDS011;9945;46.010;8.946;2022-10-04T07:17:52;7.20;;;2.72;;
19595;SDS011;9945;46.010;8.946;2022-10-04T07:20:24;6.63;;;2.28;;
19595;SDS011;9945;46.010;8.946;2022-10-04T07:22:57;9.88;;;2.42;;
19595;SDS011;9945;46.010;8.946;2022-10-04T07:25:28;6.95;;;2.30;;
19595;SDS011;9945;46.010;8.946;2022-10-04T07:28:01;4.45;;;2.08;;
19595;SDS011;9945;46.010;8.946;2022-10-04T07:30:54;9.82;;;2.65;;
19595;SDS011;9945;46.010;8.946;2022-10-04T07:33:26;7.65;;;2.83;;
19595;SDS011;9945;46.010;8.946;2022-10-04T07:35:58;7.28;;;3.10;;
19595;SDS011;9945;46.010;8.946;2022-10-04T07:38:31;3.72;;;2.28;;
19595;SDS011;9945;46.010;8.946;2022-10-04T07:41:06;6.57;;;2.80;;
19595;SDS011;9945;46.010;8.946;2022-10-04T07:43:39;5.05;;;3.05;;
19595;SDS011;9945;46.010;8.946;2022-10-04T07:46:16;4.35;;;2.70;;
19595;SDS011;9945;46.010;8.946;2022-10-04T07:48:48;4.88;;;2.40;;
19595;SDS011;9945;46.010;8.946;2022-10-04T07:51:18;7.00;;;2.72;;
19595;SDS011;9945;46.010;8.946;2022-10-04T07:53:52;3.83;;;2.00;;
19595;SDS011;9945;46.010;8.946;2022-10-04T07:56:25;6.50;;;2.40;;
19595;SDS011;9945;46.010;8.946;2022-10-04T07:59:06;2.80;;;1.90;;
19595;SDS011;9945;46.010;8.946;2022-10-04T08:01:45;5.57;;;2.70;;
19595;SDS011;9945;46.010;8.946;2022-10-04T08:04:23;2.97;;;2.10;;
19595;SDS011;9945;46.010;8.946;2022-10-04T08:07:02;2.67;;;1.95;;
19595;SDS011;9945;46.010;8.946;2022-10-04T08:09:44;7.13;;;2.35;;
19595;SDS011;9945;46.010;8.946;2022-10-04T08:12:23;4.97;;;2.15;;
19595;SDS011;9945;46.010;8.946;2022-10-04T08:15:02;4.70;;;2.78;;
19595;SDS011;9945;46.010;8.946;2022-10-04T08:17:46;8.55;;;2.63;;
19595;SDS011;9945;46.010;8.946;2022-10-04T08:20:27;4.72;;;2.17;;
19595;SDS011;9945;46.010;8.946;2022-10-04T08:23:06;11.77;;;2.60;;
19595;SDS011;9945;46.010;8.946;2022-10-04T08:25:48;6.90;;;2.70;;
19595;SDS011;9945;46.010;8.946;2022-10-04T08:28:29;3.63;;;2.20;;
19595;SDS011;9945;46.010;8.946;2022-10-04T08:31:25;6.43;;;3.20;;
19595;SDS011;9945;46.010;8.946;2022-10-04T08:34:08;10.38;;;3.00;;
19595;SDS011;9945;46.010;8.946;2022-10-04T08:36:53;5.35;;;2.80;;
19595;SDS011;9945;46.010;8.946;2022-10-04T08:39:36;3.60;;;2.38;;
19595;SDS011;9945;46.010;8.946;2022-10-04T08:42:26;9.93;;;2.67;;
19595;SDS011;9945;46.010;8.946;2022-10-04T08:51:56;3.53;;;2.30;;
19595;SDS011;9945;46.010;8.946;2022-10-04T08:57:54;8.88;;;2.88;;
19595;SDS011;9945;46.010;8.946;2022-10-04T09:00:44;3.05;;;2.05;;
19595;SDS011;9945;46.010;8.946;2022-10-04T09:03:44;7.47;;;2.75;;
19595;SDS011;9945;46.010;8.946;2022-10-04T09:06:33;7.68;;;1.95;;
19595;SDS011;9945;46.010;8.946;2022-10-04T09:18:19;6.32;;;2.20;;
19595;SDS011;9945;46.010;8.946;2022-10-04T09:20:53;3.40;;;2.25;;
19595;SDS011;9945;46.010;8.946;2022-10-04T09:23:37;4.50;;;2.05;;
19595;SDS011;9945;46.010;8.946;2022-10-04T09:26:27;2.80;;;2.13;;
19595;SDS011;9945;46.010;8.946;2022-10-04T09:29:11;6.20;;;2.15;;
19595;SDS011;9945;46.010;8.946;2022-10-04T09:35:03;7.18;;;2.75;;
19595;SDS011;9945;46.010;8.946;2022-10-04T09:38:03;6.22;;;2.15;;
19595;SDS011;9945;46.010;8.946;2022-10-04T09:43:52;3.70;;;2.03;;
19595;SDS011;9945;46.010;8.946;2022-10-04T09:46:42;4.22;;;1.60;;
19595;SDS011;9945;46.010;8.946;2022-10-04T09:49:32;4.78;;;1.63;;
19595;SDS011;9945;46.010;8.946;2022-10-04T09:52:20;4.40;;;1.80;;
19595;SDS011;9945;46.010;8.946;2022-10-04T09:55:02;2.60;;;1.77;;
19595;SDS011;9945;46.010;8.946;2022-10-04T09:57:44;6.97;;;1.85;;
19595;SDS011;9945;46.010;8.946;2022-10-04T10:00:23;5.28;;;2.30;;
19595;SDS011;9945;46.010;8.946;2022-10-04T10:03:07;6.00;;;2.30;;
19595;SDS011;9945;46.010;8.946;2022-10-04T10:06:07;5.32;;;2.25;;
19595;SDS011;9945;46.010;8.946;2022-10-04T10:08:55;4.40;;;2.30;;
19595;SDS011;9945;46.010;8.946;2022-10-04T10:11:33;3.97;;;2.35;;
19595;SDS011;9945;46.010;8.946;2022-10-04T10:17:23;3.30;;;2.15;;
19595;SDS011;9945;46.010;8.946;2022-10-04T10:23:04;6.63;;;2.22;;
19595;SDS011;9945;46.010;8.946;2022-10-04T10:25:53;2.63;;;2.15;;
19595;SDS011;9945;46.010;8.946;2022-10-04T10:28:38;2.30;;;2.05;;
19595;SDS011;9945;46.010;8.946;2022-10-04T10:31:21;2.42;;;2.20;;
19595;SDS011;9945;46.010;8.946;2022-10-04T10:37:09;5.50;;;2.58;;
19595;SDS011;9945;46.010;8.946;2022-10-04T10:39:56;3.20;;;2.60;;
19595;SDS011;9945;46.010;8.946;2022-10-04T10:45:46;3.03;;;2.75;;
19595;SDS011;9945;46.010;8.946;2022-10-04T10:48:29;5.40;;;3.00;;
19595;SDS011;9945;46.010;8.946;2022-10-04T10:51:27;2.60;;;2.40;;
19595;SDS011;9945;46.010;8.946;2022-10-04T10:54:16;3.58;;;2.70;;
19595;SDS011;9945;46.010;8.946;2022-10-04T10:57:05;6.38;;;2.75;;
19595;SDS011;9945;46.010;8.946;2022-10-04T10:59:59;4.93;;;2.50;;
19595;SDS011;9945;46.010;8.946;2022-10-04T11:02:41;3.17;;;2.80;;
19595;SDS011;9945;46.010;8.946;2022-10-04T11:05:42;4.45;;;2.50;;
19595;SDS011;9945;46.010;8.946;2022-10-04T11:11:36;3.83;;;2.80;;
19595;SDS011;9945;46.010;8.946;2022-10-04T11:14:35;3.80;;;2.75;;
19595;SDS011;9945;46.010;8.946;2022-10-04T11:17:18;4.25;;;2.88;;
19595;SDS011;9945;46.010;8.946;2022-10-04T11:28:58;8.25;;;2.92;;
19595;SDS011;9945;46.010;8.946;2022-10-04T11:31:50;5.63;;;2.90;;
19595;SDS011;9945;46.010;8.946;2022-10-04T11:37:48;3.25;;;2.92;;
19595;SDS011;9945;46.010;8.946;2022-10-04T11:40:29;3.90;;;3.45;;
19595;SDS011;9945;46.010;8.946;2022-10-04T11:43:14;4.65;;;3.53;;
19595;SDS011;9945;46.010;8.946;2022-10-04T11:46:02;8.70;;;3.75;;
19595;SDS011;9945;46.010;8.946;2022-10-04T11:48:46;8.10;;;3.67;;
19595;SDS011;9945;46.010;8.946;2022-10-04T11:54:29;4.40;;;3.70;;
19595;SDS011;9945;46.010;8.946;2022-10-04T11:57:23;3.97;;;3.05;;
19595;SDS011;9945;46.010;8.946;2022-10-04T11:59:58;4.50;;;3.75;;
19595;SDS011;9945;46.010;8.946;2022-10-04T12:02:45;4.10;;;3.70;;
19595;SDS011;9945;46.010;8.946;2022-10-04T12:05:43;4.65;;;4.20;;
19595;SDS011;9945;46.010;8.946;2022-10-04T12:08:35;4.57;;;4.15;;
19595;SDS011;9945;46.010;8.946;2022-10-04T12:14:42;10.27;;;4.18;;
19595;SDS011;9945;46.010;8.946;2022-10-04T12:29:41;7.88;;;4.97;;
19595;SDS011;9945;46.010;8.946;2022-10-04T12:32:25;5.28;;;4.35;;
19595;SDS011;9945;46.010;8.946;2022-10-04T12:34:58;8.85;;;4.85;;
19595;SDS011;9945;46.010;8.946;2022-10-04T12:37:38;8.13;;;4.45;;
19595;SDS011;9945;46.010;8.946;2022-10-04T12:40:20;9.02;;;5.10;;
19595;SDS011;9945;46.010;8.946;2022-10-04T12:42:58;5.65;;;4.90;;
19595;SDS011;9945;46.010;8.946;2022-10-04T12:48:29;6.10;;;4.68;;
19595;SDS011;9945;46.010;8.946;2022-10-04T12:51:10;8.98;;;5.00;;
19595;SDS011;9945;46.010;8.946;2022-10-04T12:53:49;6.13;;;4.50;;
19595;SDS011;9945;46.010;8.946;2022-10-04T12:59:29;8.60;;;5.20;;
19595;SDS011;9945;46.010;8.946;2022-10-04T13:02:13;6.55;;;4.80;;
19595;SDS011;9945;46.010;8.946;2022-10-04T13:04:47;6.28;;;4.57;;
19595;SDS011;9945;46.010;8.946;2022-10-04T13:10:16;6.57;;;4.97;;
19595;SDS011;9945;46.010;8.946;2022-10-04T13:13:03;6.28;;;4.80;;
19595;SDS011;9945;46.010;8.946;2022-10-04T13:15:46;7.40;;;4.57;;
19595;SDS011;9945;46.010;8.946;2022-10-04T13:18:20;6.75;;;4.28;;
19595;SDS011;9945;46.010;8.946;2022-10-04T13:20:58;6.72;;;4.70;;
19595;SDS011;9945;46.010;8.946;2022-10-04T13:23:33;8.75;;;5.68;;
19595;SDS011;9945;46.010;8.946;2022-10-04T13:29:05;8.43;;;6.20;;
19595;SDS011;9945;46.010;8.946;2022-10-04T13:31:39;10.57;;;6.72;;
19595;SDS011;9945;46.010;8.946;2022-10-04T13:34:18;8.70;;;5.68;;
19595;SDS011;9945;46.010;8.946;2022-10-04T13:37:04;6.47;;;5.72;;
19595;SDS011;9945;46.010;8.946;2022-10-04T13:40:13;9.80;;;6.68;;
19595;SDS011;9945;46.010;8.946;2022-10-04T13:46:20;9.18;;;7.13;;
19595;SDS011;9945;46.010;8.946;2022-10-04T13:49:03;8.27;;;5.95;;
19595;SDS011;9945;46.010;8.946;2022-10-04T13:51:45;9.18;;;5.93;;
19595;SDS011;9945;46.010;8.946;2022-10-04T13:54:39;12.38;;;7.25;;
19595;SDS011;9945;46.010;8.946;2022-10-04T13:57:36;11.85;;;6.75;;
19595;SDS011;9945;46.010;8.946;2022-10-04T14:00:09;9.98;;;6.43;;
19595;SDS011;9945;46.010;8.946;2022-10-04T14:02:51;23.73;;;7.13;;
19595;SDS011;9945;46.010;8.946;2022-10-04T14:05:46;8.85;;;6.57;;
19595;SDS011;9945;46.010;8.946;2022-10-04T14:11:28;10.82;;;7.15;;
19595;SDS011;9945;46.010;8.946;2022-10-04T14:21:07;13.40;;;8.13;;
19595;SDS011;9945;46.010;8.946;2022-10-04T14:24:08;14.77;;;8.73;;
19595;SDS011;9945;46.010;8.946;2022-10-04T14:27:17;7.72;;;6.72;;
19595;SDS011;9945;46.010;8.946;2022-10-04T14:30:09;10.38;;;6.43;;
19595;SDS011;9945;46.010;8.946;2022-10-04T14:35:59;7.78;;;6.30;;
19595;SDS011;9945;46.010;8.946;2022-10-04T14:38:51;8.98;;;6.40;;
19595;SDS011;9945;46.010;8.946;2022-10-04T14:41:34;7.88;;;7.18;;
19595;SDS011;9945;46.010;8.946;2022-10-04T14:44:28;9.00;;;7.65;;
19595;SDS011;9945;46.010;8.946;2022-10-04T14:47:14;11.27;;;7.35;;
19595;SDS011;9945;46.010;8.946;2022-10-04T14:50:03;9.10;;;8.20;;
19595;SDS011;9945;46.010;8.946;2022-10-04T14:52:49;10.10;;;7.50;;
19595;SDS011;9945;46.010;8.946;2022-10-04T14:55:31;9.75;;;8.45;;
19595;SDS011;9945;46.010;8.946;2022-10-04T14:58:17;9.45;;;6.70;;
19595;SDS011;9945;46.010;8.946;2022-10-04T15:01:04;11.88;;;8.48;;
19595;SDS011;9945;46.010;8.946;2022-10-04T15:06:39;10.68;;;7.32;;
19595;SDS011;9945;46.010;8.946;2022-10-04T15:09:30;8.90;;;7.88;;
19595;SDS011;9945;46.010;8.946;2022-10-04T15:12:23;9.07;;;7.85;;
19595;SDS011;9945;46.010;8.946;2022-10-04T15:15:21;9.57;;;7.93;;
19595;SDS011;9945;46.010;8.946;2022-10-04T15:21:10;13.73;;;6.95;;
19595;SDS011;9945;46.010;8.946;2022-10-04T15:23:58;10.07;;;8.13;;
19595;SDS011;9945;46.010;8.946;2022-10-04T15:26:46;7.82;;;7.03;;
19595;SDS011;9945;46.010;8.946;2022-10-04T15:29:19;7.85;;;6.85;;
19595;SDS011;9945;46.010;8.946;2022-10-04T15:31:56;12.73;;;7.97;;
19595;SDS011;9945;46.010;8.946;2022-10-04T15:34:32;7.25;;;6.57;;
19595;SDS011;9945;46.010;8.946;2022-10-04T15:37:09;8.98;;;7.35;;
19595;SDS011;9945;46.010;8.946;2022-10-04T15:39:59;9.50;;;7.30;;
19595;SDS011;9945;46.010;8.946;2022-10-04T15:42:51;9.60;;;7.00;;
19595;SDS011;9945;46.010;8.946;2022-10-04T15:52:17;11.43;;;7.72;;
19595;SDS011;9945;46.010;8.946;2022-10-04T15:55:09;15.85;;;7.70;;
19595;SDS011;9945;46.010;8.946;2022-10-04T16:00:58;13.05;;;7.68;;
19595;SDS011;9945;46.010;8.946;2022-10-04T16:03:44;8.50;;;7.78;;
19595;SDS011;9945;46.010;8.946;2022-10-04T16:06:20;14.18;;;8.48;;
19595;SDS011;9945;46.010;8.946;2022-10-04T16:09:03;12.93;;;8.75;;
19595;SDS011;9945;46.010;8.946;2022-10-04T16:11:49;7.97;;;7.25;;
19595;SDS011;9945;46.010;8.946;2022-10-04T16:14:31;9.98;;;8.07;;
19595;SDS011;9945;46.010;8.946;2022-10-04T16:20:19;12.18;;;7.10;;
19595;SDS011;9945;46.010;8.946;2022-10-04T16:23:21;10.15;;;7.22;;
19595;SDS011;9945;46.010;8.946;2022-10-04T16:25:50;10.25;;;7.32;;
19595;SDS011;9945;46.010;8.946;2022-10-04T16:28:21;9.82;;;7.10;;
19595;SDS011;9945;46.010;8.946;2022-10-04T16:34:13;9.05;;;6.55;;
19595;SDS011;9945;46.010;8.946;2022-10-04T16:36:51;9.00;;;6.78;;
19595;SDS011;9945;46.010;8.946;2022-10-04T16:39:34;11.55;;;7.15;;
19595;SDS011;9945;46.010;8.946;2022-10-04T16:42:26;9.02;;;6.28;;
19595;SDS011;9945;46.010;8.946;2022-10-04T16:45:23;13.23;;;7.43;;
19595;SDS011;9945;46.010;8.946;2022-10-04T16:48:12;15.57;;;6.63;;
19595;SDS011;9945;46.010;8.946;2022-10-04T16:50:54;12.45;;;7.53;;
19595;SDS011;9945;46.010;8.946;2022-10-04T16:53:39;12.80;;;6.88;;
19595;SDS011;9945;46.010;8.946;2022-10-04T16:56:16;16.48;;;7.18;;
19595;SDS011;9945;46.010;8.946;2022-10-04T16:58:50;12.77;;;6.88;;
19595;SDS011;9945;46.010;8.946;2022-10-04T17:04:23;10.75;;;6.45;;
19595;SDS011;9945;46.010;8.946;2022-10-04T17:07:12;7.97;;;7.22;;
19595;SDS011;9945;46.010;8.946;2022-10-04T17:09:48;10.23;;;7.88;;
19595;SDS011;9945;46.010;8.946;2022-10-04T17:12:25;11.35;;;7.72;;
19595;SDS011;9945;46.010;8.946;2022-10-04T17:15:08;9.38;;;8.40;;
19595;SDS011;9945;46.010;8.946;2022-10-04T17:18:02;9.93;;;8.23;;
19595;SDS011;9945;46.010;8.946;2022-10-04T17:20:46;11.60;;;7.75;;
19595;SDS011;9945;46.010;8.946;2022-10-04T17:26:24;11.13;;;7.80;;
19595;SDS011;9945;46.010;8.946;2022-10-04T17:29:15;14.55;;;10.60;;
19595;SDS011;9945;46.010;8.946;2022-10-04T17:31:55;8.77;;;7.90;;
19595;SDS011;9945;46.010;8.946;2022-10-04T17:34:26;12.35;;;7.72;;
19595;SDS011;9945;46.010;8.946;2022-10-04T17:37:03;10.00;;;7.60;;
19595;SDS011;9945;46.010;8.946;2022-10-04T17:39:46;8.90;;;7.38;;
19595;SDS011;9945;46.010;8.946;2022-10-04T17:42:20;12.35;;;8.18;;
19595;SDS011;9945;46.010;8.946;2022-10-04T17:44:59;15.18;;;8.32;;
19595;SDS011;9945;46.010;8.946;2022-10-04T17:47:40;9.80;;;7.85;;
19595;SDS011;9945;46.010;8.946;2022-10-04T17:50:32;9.55;;;8.15;;
19595;SDS011;9945;46.010;8.946;2022-10-04T17:53:23;11.43;;;8.25;;
19595;SDS011;9945;46.010;8.946;2022-10-04T17:56:12;12.10;;;7.90;;
19595;SDS011;9945;46.010;8.946;2022-10-04T17:58:54;13.20;;;8.77;;
19595;SDS011;9945;46.010;8.946;2022-10-04T18:01:24;12.13;;;8.68;;
19595;SDS011;9945;46.010;8.946;2022-10-04T18:03:55;8.27;;;7.50;;
19595;SDS011;9945;46.010;8.946;2022-10-04T18:06:32;9.90;;;7.30;;
19595;SDS011;9945;46.010;8.946;2022-10-04T18:09:07;10.48;;;8.45;;
19595;SDS011;9945;46.010;8.946;2022-10-04T18:11:44;11.25;;;8.18;;
19595;SDS011;9945;46.010;8.946;2022-10-04T18:14:19;11.15;;;9.68;;
19595;SDS011;9945;46.010;8.946;2022-10-04T18:17:12;13.50;;;11.70;;
19595;SDS011;9945;46.010;8.946;2022-10-04T18:19:49;14.07;;;9.38;;
19595;SDS011;9945;46.010;8.946;2022-10-04T18:22:25;13.20;;;8.85;;
19595;SDS011;9945;46.010;8.946;2022-10-04T18:25:10;15.13;;;10.07;;
19595;SDS011;9945;46.010;8.946;2022-10-04T18:27:46;11.93;;;9.27;;
19595;SDS011;9945;46.010;8.946;2022-10-04T18:30:17;10.75;;;8.63;;
19595;SDS011;9945;46.010;8.946;2022-10-04T18:32:45;14.07;;;9.35;;
19595;SDS011;9945;46.010;8.946;2022-10-04T18:35:21;8.98;;;8.07;;